createdAt,value
2018-12-26T00:00:49.076Z,21.87
2018-12-26T00:03:16.494Z,20.87
2018-12-26T00:06:03.081Z,18.70
2018-12-26T00:14:33.638Z,19.73
2018-12-26T00:17:20.388Z,16.60
2018-12-26T00:19:48.045Z,20.10
2018-12-26T00:22:15.548Z,27.60
2018-12-26T00:24:42.763Z,18.87
2018-12-26T00:27:10.009Z,17.20
2018-12-26T00:29:37.515Z,22.97
2018-12-26T00:32:04.729Z,19.13
2018-12-26T00:34:31.953Z,22.20
2018-12-26T00:36:59.571Z,23.93
2018-12-26T00:42:27.605Z,19.33
2018-12-26T00:45:14.657Z,18.37
2018-12-26T00:47:41.903Z,20.83
2018-12-26T00:50:09.068Z,17.87
2018-12-26T00:52:36.156Z,16.73
2018-12-26T00:55:35.211Z,23.20
2018-12-26T00:58:02.395Z,18.00
2018-12-26T01:00:29.619Z,19.53
2018-12-26T01:03:16.264Z,20.40
2018-12-26T01:11:51.353Z,16.13
2018-12-26T01:14:18.512Z,21.60
2018-12-26T01:16:45.676Z,22.00
2018-12-26T01:19:12.864Z,16.27
2018-12-26T01:21:40.151Z,19.00
2018-12-26T01:24:39.049Z,25.40
2018-12-26T01:27:06.649Z,21.80
2018-12-26T01:29:33.835Z,22.67
2018-12-26T01:32:01.034Z,20.07
2018-12-26T01:34:28.135Z,25.33
2018-12-26T01:36:55.284Z,17.00
2018-12-26T01:42:23.273Z,19.77
2018-12-26T01:44:50.670Z,17.37
2018-12-26T01:49:57.373Z,16.93
2018-12-26T01:52:24.527Z,16.57
2018-12-26T01:54:51.728Z,18.13
2018-12-26T01:57:18.925Z,21.20
2018-12-26T02:02:58.796Z,20.60
2018-12-26T02:05:37.958Z,20.40
2018-12-26T02:08:05.270Z,18.77
2018-12-26T02:10:32.341Z,19.93
2018-12-26T02:13:11.725Z,17.60
2018-12-26T02:18:39.544Z,18.07
2018-12-26T02:21:06.751Z,21.63
2018-12-26T02:23:33.985Z,23.00
2018-12-26T02:26:01.201Z,25.13
2018-12-26T02:28:28.359Z,19.20
2018-12-26T02:36:48.758Z,19.30
2018-12-26T02:39:15.965Z,22.77
2018-12-26T02:41:43.161Z,22.37
2018-12-26T02:44:29.919Z,22.00
2018-12-26T02:46:57.078Z,20.77
2018-12-26T02:49:24.613Z,27.50
2018-12-26T02:51:51.846Z,19.07
2018-12-26T02:54:38.484Z,16.97
2018-12-26T02:57:06.166Z,19.90
2018-12-26T02:59:33.342Z,20.37
2018-12-26T03:02:00.524Z,17.17
2018-12-26T03:04:47.444Z,18.53
2018-12-26T03:07:34.358Z,30.40
2018-12-26T03:10:01.569Z,21.43
2018-12-26T03:12:30.575Z,18.80
2018-12-26T03:14:57.726Z,19.53
2018-12-26T03:17:25.025Z,19.83
2018-12-26T03:19:52.177Z,19.33
2018-12-26T03:22:38.855Z,20.87
2018-12-26T03:25:46.886Z,19.93
2018-12-26T03:28:14.104Z,25.87
2018-12-26T03:30:41.262Z,17.63
2018-12-26T03:33:19.909Z,18.80
2018-12-26T03:35:46.999Z,17.77
2018-12-26T03:38:14.321Z,19.53
2018-12-26T03:41:22.361Z,19.73
2018-12-26T03:56:07.771Z,16.77
2018-12-26T03:59:05.950Z,15.10
2018-12-26T04:01:33.153Z,17.63
2018-12-26T04:04:00.326Z,22.87
2018-12-26T04:06:27.524Z,21.03
2018-12-26T04:09:14.309Z,20.17
2018-12-26T04:11:41.493Z,22.83
2018-12-26T04:14:49.534Z,20.23
2018-12-26T04:17:16.698Z,23.23
2018-12-26T04:20:24.757Z,24.67
2018-12-26T04:26:12.353Z,21.83
2018-12-26T04:28:39.531Z,22.33
2018-12-26T04:31:06.685Z,28.30
2018-12-26T04:33:33.935Z,26.60
2018-12-26T04:36:20.465Z,29.17
2018-12-26T04:38:47.696Z,30.40
2018-12-26T04:44:16.418Z,35.40
2018-12-26T04:46:44.005Z,33.50
2018-12-26T04:49:11.198Z,31.70
2018-12-26T04:51:57.845Z,34.80
2018-12-26T04:58:07.488Z,37.57
2018-12-26T05:00:34.689Z,33.10
2018-12-26T05:03:01.799Z,36.10
2018-12-26T05:05:28.909Z,32.33
2018-12-26T05:07:55.966Z,29.30
2018-12-26T05:10:23.150Z,39.87
2018-12-26T05:13:02.028Z,34.97
2018-12-26T05:15:29.194Z,36.70
2018-12-26T05:17:56.368Z,34.33
2018-12-26T05:20:23.547Z,33.00
2018-12-26T05:22:50.715Z,38.77
2018-12-26T05:25:17.889Z,40.03
2018-12-26T05:27:45.202Z,34.50
2018-12-26T05:30:12.361Z,40.87
2018-12-26T05:32:39.638Z,34.33
2018-12-26T05:35:06.827Z,31.03
2018-12-26T05:37:34.023Z,33.73
2018-12-26T05:40:01.185Z,27.80
2018-12-26T05:42:28.419Z,28.87
2018-12-26T05:48:03.679Z,29.60
2018-12-26T05:50:50.207Z,32.63
2018-12-26T05:53:36.882Z,34.83
2018-12-26T05:56:04.046Z,34.43
2018-12-26T06:01:11.330Z,32.80
2018-12-26T06:03:58.025Z,31.17
2018-12-26T06:06:25.228Z,34.53
2018-12-26T06:08:52.408Z,37.20
2018-12-26T06:11:19.956Z,36.40
2018-12-26T06:13:47.168Z,33.83
2018-12-26T06:16:14.214Z,30.90
2018-12-26T06:18:41.391Z,31.97
2018-12-26T06:21:08.456Z,30.43
2018-12-26T06:23:35.630Z,42.43
2018-12-26T06:26:02.806Z,31.10
2018-12-26T06:28:30.210Z,32.10
2018-12-26T06:31:16.914Z,37.70
2018-12-26T06:33:44.187Z,32.63
2018-12-26T06:36:11.409Z,38.53
2018-12-26T06:38:39.029Z,35.20
2018-12-26T06:41:06.246Z,31.63
2018-12-26T06:43:52.955Z,31.13
2018-12-26T06:46:20.157Z,35.63
2018-12-26T06:48:47.303Z,41.90
2018-12-26T06:51:15.234Z,36.77
2018-12-26T06:57:03.456Z,47.80
2018-12-26T06:59:50.113Z,30.80
2018-12-26T07:02:36.876Z,30.43
2018-12-26T07:05:04.051Z,37.30
2018-12-26T07:07:31.295Z,34.93
2018-12-26T07:09:58.471Z,31.40
2018-12-26T07:15:18.207Z,31.53
2018-12-26T07:17:45.364Z,31.67
2018-12-26T07:23:31.031Z,30.53
2018-12-26T07:25:58.470Z,29.20
2018-12-26T07:28:25.620Z,28.57
2018-12-26T07:30:52.832Z,32.73
2018-12-26T07:33:39.719Z,35.70
2018-12-26T07:36:06.933Z,30.00
2018-12-26T07:42:06.605Z,34.63
2018-12-26T07:45:14.580Z,35.93
2018-12-26T07:48:01.517Z,35.73
2018-12-26T07:50:28.601Z,34.63
2018-12-26T07:53:15.306Z,34.70
2018-12-26T07:56:01.967Z,34.90
2018-12-26T07:58:48.638Z,35.13
2018-12-26T08:06:54.500Z,33.13
2018-12-26T08:09:41.178Z,31.40
2018-12-26T08:12:20.778Z,28.80
2018-12-26T08:17:27.571Z,42.53
2018-12-26T08:19:54.732Z,31.70
2018-12-26T08:22:21.936Z,38.50
2018-12-26T08:27:28.907Z,33.70
2018-12-26T08:29:56.152Z,31.70
2018-12-26T08:32:23.308Z,41.53
2018-12-26T08:34:50.536Z,39.60
2018-12-26T08:40:19.284Z,28.00
2018-12-26T08:42:46.457Z,30.17
2018-12-26T08:45:13.505Z,31.73
2018-12-26T08:48:00.310Z,36.87
2018-12-26T08:50:27.854Z,37.33
2018-12-26T08:52:55.012Z,36.77
2018-12-26T08:55:42.100Z,33.20
2018-12-26T09:01:23.715Z,34.10
2018-12-26T09:03:50.919Z,39.23
2018-12-26T09:06:18.085Z,32.80
2018-12-26T09:09:12.415Z,41.17
2018-12-26T09:11:39.667Z,33.17
2018-12-26T09:14:07.252Z,33.27
2018-12-26T09:17:15.273Z,37.40
2018-12-26T09:19:42.791Z,29.13
2018-12-26T09:22:09.945Z,35.23
2018-12-26T09:24:37.171Z,34.23
2018-12-26T09:27:47.108Z,36.83
2018-12-26T09:30:14.333Z,33.93
2018-12-26T09:32:41.496Z,34.63
2018-12-26T09:38:29.896Z,37.80
2018-12-26T09:40:57.097Z,35.37
2018-12-26T09:43:24.317Z,34.77
2018-12-26T09:48:32.106Z,28.07
2018-12-26T09:50:59.218Z,31.13
2018-12-26T09:53:26.847Z,34.50
2018-12-26T09:55:54.124Z,40.07
2018-12-26T09:58:21.339Z,30.87
2018-12-26T10:00:48.563Z,29.80
2018-12-26T10:03:15.750Z,32.40
2018-12-26T10:06:14.629Z,33.10
2018-12-26T10:08:41.794Z,29.03
2018-12-26T10:11:09.006Z,31.33
2018-12-26T10:14:17.056Z,34.97
2018-12-26T10:16:44.291Z,28.77
2018-12-26T10:19:11.473Z,30.87
2018-12-26T10:21:58.163Z,28.90
2018-12-26T10:27:37.910Z,26.37
2018-12-26T10:30:05.660Z,25.97
2018-12-26T10:32:32.838Z,25.57
2018-12-26T10:40:33.160Z,30.20
2018-12-26T10:43:00.425Z,31.10
2018-12-26T10:45:27.592Z,29.03
2018-12-26T10:47:54.795Z,25.00
2018-12-26T10:50:21.973Z,33.20
2018-12-26T10:53:08.902Z,26.60
2018-12-26T10:55:36.058Z,27.13
2018-12-26T10:58:03.269Z,30.27
2018-12-26T11:00:30.467Z,32.93
2018-12-26T11:02:57.943Z,29.67
2018-12-26T11:08:25.930Z,24.53
2018-12-26T11:10:53.187Z,26.67
2018-12-26T11:13:32.656Z,27.73
2018-12-26T11:15:59.824Z,30.00
2018-12-26T11:18:39.165Z,25.60
2018-12-26T11:21:06.239Z,32.23
2018-12-26T11:23:33.326Z,25.50
2018-12-26T11:26:00.544Z,27.53
2018-12-26T11:28:27.752Z,23.80
2018-12-26T11:33:56.631Z,25.13
2018-12-26T11:36:55.716Z,22.40
2018-12-26T11:39:22.801Z,30.00
2018-12-26T11:44:29.913Z,26.10
2018-12-26T11:46:57.122Z,23.00
2018-12-26T11:49:24.325Z,26.00
2018-12-26T11:51:51.523Z,23.20
2018-12-26T11:54:18.742Z,33.60
2018-12-26T11:56:45.919Z,28.80
2018-12-26T11:59:13.153Z,26.50
2018-12-26T12:01:40.636Z,25.13
2018-12-26T12:04:08.191Z,26.60
2018-12-26T12:06:35.454Z,27.13
2018-12-26T12:12:48.853Z,27.80
2018-12-26T12:15:16.361Z,24.80
2018-12-26T12:17:43.428Z,26.00
2018-12-26T12:20:11.525Z,29.50
2018-12-26T12:22:38.824Z,30.47
2018-12-26T12:25:06.043Z,30.53
2018-12-26T12:27:33.250Z,26.90
2018-12-26T12:30:00.490Z,29.30
2018-12-26T12:32:27.677Z,29.60
2018-12-26T12:34:54.879Z,26.80
2018-12-26T12:37:22.052Z,28.13
2018-12-26T12:39:49.261Z,32.90
2018-12-26T12:48:18.574Z,28.30
2018-12-26T12:51:05.795Z,28.40
2018-12-26T12:53:44.722Z,24.47
2018-12-26T12:56:12.316Z,22.07
2018-12-26T12:59:00.799Z,22.97
2018-12-26T13:04:05.848Z,23.47
2018-12-26T13:09:34.651Z,22.70
2018-12-26T13:12:01.848Z,22.97
2018-12-26T13:14:30.810Z,26.27
2018-12-26T13:16:58.080Z,25.43
2018-12-26T13:19:25.264Z,24.83
2018-12-26T13:21:52.468Z,24.33
2018-12-26T13:24:39.135Z,24.10
2018-12-26T13:27:06.396Z,23.50
2018-12-26T13:29:54.123Z,24.87
2018-12-26T13:35:53.129Z,30.27
2018-12-26T13:38:20.355Z,27.20
2018-12-26T13:43:49.010Z,24.03
2018-12-26T13:46:57.026Z,23.00
2018-12-26T13:55:19.935Z,25.43
2018-12-26T13:57:47.171Z,23.33
2018-12-26T14:00:14.339Z,25.80
2018-12-26T14:02:41.552Z,25.70
2018-12-26T14:05:08.817Z,30.53
2018-12-26T14:07:36.009Z,24.80
2018-12-26T14:10:44.195Z,24.37
2018-12-26T14:13:11.442Z,24.43
2018-12-26T14:15:38.605Z,26.00
2018-12-26T14:18:46.534Z,28.27
2018-12-26T14:24:47.157Z,24.80
2018-12-26T14:27:14.472Z,28.20
2018-12-26T14:29:42.566Z,24.93
2018-12-26T14:32:20.692Z,24.50
2018-12-26T14:34:47.881Z,23.20
2018-12-26T14:37:15.058Z,29.17
2018-12-26T14:40:02.064Z,24.13
2018-12-26T14:42:29.233Z,26.77
2018-12-26T14:44:56.472Z,28.93
2018-12-26T14:47:23.556Z,24.40
2018-12-26T14:49:50.725Z,31.70
2018-12-26T14:52:58.639Z,27.07
2018-12-26T14:55:25.865Z,28.90
2018-12-26T14:57:52.936Z,20.80
2018-12-26T15:03:52.824Z,30.10
2018-12-26T15:06:39.496Z,30.60
2018-12-26T15:09:47.899Z,25.10
2018-12-26T15:12:15.491Z,27.13
2018-12-26T15:14:42.663Z,28.60
2018-12-26T15:17:50.681Z,26.13
2018-12-26T15:20:17.866Z,27.13
2018-12-26T15:22:45.045Z,29.13
2018-12-26T15:28:13.149Z,29.67
2018-12-26T15:30:40.328Z,36.20
2018-12-26T15:33:07.941Z,34.30
2018-12-26T15:35:35.094Z,30.00
2018-12-26T15:38:02.290Z,30.03
2018-12-26T15:40:29.499Z,33.37
2018-12-26T15:45:49.489Z,29.67
2018-12-26T15:48:36.543Z,36.00
2018-12-26T15:51:03.674Z,36.97
2018-12-26T15:53:30.877Z,34.47
2018-12-26T15:58:59.456Z,29.30
2018-12-26T16:01:46.123Z,33.20
2018-12-26T16:04:13.327Z,30.00
2018-12-26T16:06:40.952Z,39.20
2018-12-26T16:09:08.126Z,44.67
2018-12-26T16:11:35.386Z,34.23
2018-12-26T16:17:42.350Z,33.10
2018-12-26T16:20:09.905Z,37.70
2018-12-26T16:22:37.080Z,41.07
2018-12-26T16:25:45.694Z,34.90
2018-12-26T16:28:13.299Z,34.50
2018-12-26T16:30:47.005Z,33.87
2018-12-26T16:33:14.192Z,39.00
2018-12-26T16:35:41.267Z,36.67
2018-12-26T16:38:08.491Z,35.17
2018-12-26T16:40:35.638Z,33.93
2018-12-26T16:43:02.847Z,44.67
2018-12-26T16:45:29.968Z,38.10
2018-12-26T16:47:57.033Z,40.30
2018-12-26T16:50:27.072Z,36.07
2018-12-26T16:53:03.035Z,38.87
2018-12-26T16:55:30.759Z,42.93
2018-12-26T16:58:10.248Z,45.60
2018-12-26T17:00:37.421Z,40.57
2018-12-26T17:03:04.530Z,37.93
2018-12-26T17:05:43.770Z,39.13
2018-12-26T17:08:23.168Z,34.53
2018-12-26T17:11:09.934Z,41.97
2018-12-26T17:13:38.573Z,38.30
2018-12-26T17:16:25.988Z,40.77
2018-12-26T17:18:53.194Z,41.67
2018-12-26T17:21:40.194Z,42.13
2018-12-26T17:27:19.718Z,39.20
2018-12-26T17:29:46.907Z,45.40
2018-12-26T17:32:33.582Z,43.87
2018-12-26T17:38:00.484Z,38.43
2018-12-26T17:40:27.709Z,40.97
2018-12-26T17:42:55.195Z,45.77
2018-12-26T17:46:03.806Z,44.03
2018-12-26T17:48:31.006Z,36.97
2018-12-26T17:51:40.517Z,48.47
2018-12-26T17:54:46.652Z,37.90
2018-12-26T17:57:35.480Z,47.63
2018-12-26T18:00:25.529Z,39.93
2018-12-26T18:05:54.218Z,48.13
2018-12-26T18:08:34.226Z,50.87
2018-12-26T18:11:01.310Z,62.20
2018-12-26T18:13:28.874Z,47.97
2018-12-26T18:18:55.438Z,52.53
2018-12-26T18:21:22.598Z,48.30
2018-12-26T18:23:50.044Z,49.30
2018-12-26T18:26:17.184Z,47.30
2018-12-26T18:28:44.397Z,44.50
2018-12-26T18:31:52.407Z,44.93
2018-12-26T18:34:19.800Z,43.93
2018-12-26T18:37:27.740Z,49.80
2018-12-26T18:39:54.964Z,43.97
2018-12-26T18:42:22.196Z,41.37
2018-12-26T18:50:31.319Z,44.20
2018-12-26T18:56:18.578Z,47.27
2018-12-26T18:58:45.723Z,49.30
2018-12-26T19:01:12.865Z,43.90
2018-12-26T19:03:59.523Z,41.13
2018-12-26T19:06:26.696Z,48.67
2018-12-26T19:09:06.231Z,50.53
2018-12-26T19:11:33.426Z,45.30
2018-12-26T19:14:00.939Z,49.13
2018-12-26T19:19:49.056Z,49.87
2018-12-26T19:22:16.248Z,43.20
2018-12-26T19:25:24.285Z,41.13
2018-12-26T19:31:25.851Z,50.13
2018-12-26T19:34:12.498Z,43.77
2018-12-26T19:36:59.198Z,41.27
2018-12-26T19:39:26.656Z,48.57
2018-12-26T19:41:53.752Z,42.47
2018-12-26T19:44:20.853Z,45.40
2018-12-26T19:46:48.075Z,46.37
2018-12-26T19:49:15.268Z,57.30
2018-12-26T19:51:42.820Z,44.07
2018-12-26T19:54:10.057Z,48.40
2018-12-26T19:56:37.250Z,38.67
2018-12-26T19:59:23.963Z,47.13
2018-12-26T20:01:51.447Z,51.23
2018-12-26T20:04:19.011Z,50.77
2018-12-26T20:07:27.239Z,42.00
2018-12-26T20:09:54.477Z,42.83
2018-12-26T20:15:02.398Z,42.03
2018-12-26T20:17:29.563Z,46.27
2018-12-26T20:19:56.800Z,52.80
2018-12-26T20:22:24.057Z,51.57
2018-12-26T20:24:51.246Z,44.63
2018-12-26T20:27:37.897Z,45.17
2018-12-26T20:33:39.606Z,51.20
2018-12-26T20:36:06.810Z,53.33
2018-12-26T20:38:33.984Z,46.70
2018-12-26T20:41:01.554Z,46.90
2018-12-26T20:43:48.200Z,55.70
2018-12-26T20:46:34.957Z,51.73
2018-12-26T20:49:02.125Z,47.27
2018-12-26T20:51:31.928Z,51.07
2018-12-26T20:53:59.139Z,49.70
2018-12-26T20:56:46.100Z,55.00
2018-12-26T20:59:32.941Z,50.93
2018-12-26T21:02:05.671Z,51.37
2018-12-26T21:04:39.028Z,58.90
2018-12-26T21:07:06.620Z,56.93
2018-12-26T21:09:33.812Z,53.20
2018-12-26T21:12:01.461Z,64.37
2018-12-26T21:14:28.630Z,65.77
2018-12-26T21:17:07.638Z,59.30
2018-12-26T21:19:54.269Z,56.77
2018-12-26T21:22:21.502Z,66.67
2018-12-26T21:24:48.684Z,58.50
2018-12-26T21:27:22.494Z,64.27
2018-12-26T21:29:49.758Z,61.37
2018-12-26T21:32:36.819Z,66.83
2018-12-26T21:35:44.931Z,58.00
2018-12-26T21:38:12.164Z,67.30
2018-12-26T21:40:39.344Z,56.17
2018-12-26T21:43:07.003Z,64.20
2018-12-26T21:45:34.450Z,68.00
2018-12-26T21:48:01.927Z,50.67
2018-12-26T21:50:48.497Z,65.43
2018-12-26T21:56:28.670Z,59.07
2018-12-26T21:59:15.351Z,53.23
2018-12-26T22:01:42.602Z,54.80
2018-12-26T22:07:29.976Z,51.30
2018-12-26T22:12:58.593Z,50.43
2018-12-26T22:15:25.827Z,53.53
2018-12-26T22:17:52.916Z,47.90
2018-12-26T22:20:20.138Z,57.10
2018-12-26T22:22:47.337Z,52.37
2018-12-26T22:25:14.573Z,50.93
2018-12-26T22:28:13.645Z,55.40
2018-12-26T22:30:40.821Z,52.10
2018-12-26T22:33:08.387Z,49.33
2018-12-26T22:35:35.490Z,57.83
2018-12-26T22:38:02.707Z,44.00
2018-12-26T22:40:29.923Z,52.80
2018-12-26T22:45:50.158Z,49.57
2018-12-26T22:48:17.383Z,51.37
2018-12-26T22:54:36.580Z,47.17
2018-12-26T22:57:04.157Z,46.73
2018-12-26T23:00:12.174Z,50.60
2018-12-26T23:02:39.338Z,48.30
2018-12-26T23:05:26.341Z,43.63
2018-12-26T23:11:06.725Z,54.53
2018-12-26T23:13:33.889Z,50.23
2018-12-26T23:16:01.064Z,46.50
2018-12-26T23:18:28.163Z,48.73
2018-12-26T23:20:55.233Z,49.13
2018-12-26T23:24:03.307Z,51.50
2018-12-26T23:26:30.577Z,48.67
2018-12-26T23:32:11.864Z,39.47
2018-12-26T23:34:39.082Z,49.03
2018-12-26T23:37:06.284Z,45.30
2018-12-26T23:39:52.853Z,42.87
2018-12-26T23:42:20.319Z,43.63
2018-12-26T23:45:28.294Z,39.90
2018-12-26T23:47:55.473Z,43.70
2018-12-26T23:50:22.684Z,49.70
2018-12-26T23:52:49.872Z,50.87
2018-12-26T23:55:16.956Z,48.47
2018-12-26T23:57:44.126Z,55.90
